createdAt,value
2023-02-17T00:02:38.165Z,1.81
2023-02-17T00:07:42.835Z,1.85
2023-02-17T00:12:47.327Z,1.92
2023-02-17T00:17:53.225Z,1.90
2023-02-17T00:22:57.453Z,1.97
2023-02-17T00:28:01.654Z,1.95
2023-02-17T00:33:07.630Z,2.02
2023-02-17T00:38:12.271Z,2.08
2023-02-17T00:43:16.660Z,2.12
2023-02-17T00:48:22.961Z,2.19
2023-02-17T00:53:27.591Z,2.23
2023-02-17T00:58:32.129Z,2.21
2023-02-17T01:03:38.109Z,2.15
2023-02-17T01:08:42.313Z,2.12
2023-02-17T01:13:46.772Z,2.08
2023-02-17T01:18:53.082Z,2.01
2023-02-17T01:24:02.069Z,2.05
2023-02-17T01:29:08.366Z,1.97
2023-02-17T01:34:14.139Z,1.97
2023-02-17T01:39:19.984Z,1.92
2023-02-17T01:44:26.441Z,1.87
2023-02-17T01:49:37.294Z,1.89
2023-02-17T01:54:46.735Z,1.84
2023-02-17T01:59:51.439Z,1.89
2023-02-17T02:04:57.205Z,1.82
2023-02-17T02:10:01.933Z,1.85
2023-02-17T02:15:10.795Z,1.90
2023-02-17T02:20:53.540Z,1.95
2023-02-17T02:26:46.747Z,1.93
2023-02-17T02:32:08.095Z,1.96
2023-02-17T02:37:19.162Z,2.01
2023-02-17T02:42:25.718Z,2.12
2023-02-17T02:47:50.302Z,2.20
2023-02-17T02:53:25.235Z,2.25
2023-02-17T02:58:41.799Z,2.30
2023-02-17T03:03:52.748Z,2.33
2023-02-17T03:09:05.588Z,2.35
2023-02-17T03:14:12.684Z,2.33
2023-02-17T03:19:21.681Z,2.35
2023-02-17T03:24:28.093Z,2.37
2023-02-17T03:29:33.242Z,2.39
2023-02-17T03:34:37.961Z,2.46
2023-02-17T03:39:43.759Z,2.54
2023-02-17T03:44:48.104Z,2.62
2023-02-17T03:49:53.085Z,2.69
2023-02-17T03:54:59.009Z,2.75
2023-02-17T04:00:04.623Z,2.88
2023-02-17T04:05:17.263Z,2.95
2023-02-17T04:10:23.312Z,2.97
2023-02-17T04:15:27.897Z,3.04
2023-02-17T04:20:32.156Z,3.13
2023-02-17T04:25:39.313Z,3.22
2023-02-17T04:30:46.891Z,3.26
2023-02-17T04:35:51.495Z,3.29
2023-02-17T04:40:59.534Z,3.39
2023-02-17T04:46:04.562Z,3.45
2023-02-17T04:51:09.404Z,3.47
2023-02-17T04:56:15.186Z,3.46
2023-02-17T05:01:19.748Z,3.51
2023-02-17T05:06:24.187Z,3.56
2023-02-17T05:11:31.711Z,3.57
2023-02-17T05:16:36.009Z,3.56
2023-02-17T05:21:40.452Z,3.52
2023-02-17T05:26:46.228Z,3.50
2023-02-17T05:31:51.161Z,3.49
2023-02-17T05:36:55.538Z,3.39
2023-02-17T05:42:01.201Z,3.47
2023-02-17T05:47:06.038Z,3.47
2023-02-17T05:52:10.801Z,3.52
2023-02-17T05:57:16.731Z,3.55
2023-02-17T06:02:21.213Z,3.54
2023-02-17T06:07:25.790Z,3.50
2023-02-17T06:12:31.574Z,3.56
2023-02-17T06:17:35.792Z,3.65
2023-02-17T06:22:40.424Z,3.74
2023-02-17T06:27:46.008Z,3.83
2023-02-17T06:32:51.056Z,3.99
2023-02-17T06:37:55.374Z,4.09
2023-02-17T06:43:01.140Z,4.17
2023-02-17T06:48:05.668Z,4.29
2023-02-17T06:53:10.049Z,4.30
2023-02-17T06:58:16.157Z,4.39
2023-02-17T07:03:20.512Z,4.44
2023-02-17T07:08:24.853Z,4.49
2023-02-17T07:13:30.590Z,4.58
2023-02-17T07:18:35.420Z,4.60
2023-02-17T07:23:40.046Z,4.70
2023-02-17T07:28:45.640Z,4.77
2023-02-17T07:33:50.210Z,4.83
2023-02-17T07:38:54.961Z,4.89
2023-02-17T07:44:01.174Z,4.96
2023-02-17T07:49:05.982Z,5.06
2023-02-17T07:54:10.236Z,5.16
2023-02-17T07:59:16.524Z,5.28
2023-02-17T08:04:20.985Z,5.36
2023-02-17T08:09:42.873Z,5.42
2023-02-17T08:14:48.538Z,5.49
2023-02-17T08:19:52.788Z,5.53
2023-02-17T08:24:57.267Z,5.50
2023-02-17T08:30:03.618Z,5.60
2023-02-17T08:35:09.298Z,5.69
2023-02-17T08:40:13.776Z,5.86
2023-02-17T08:45:19.862Z,5.96
2023-02-17T08:50:24.735Z,6.02
2023-02-17T08:55:33.494Z,6.08
2023-02-17T09:00:46.566Z,6.11
2023-02-17T09:05:51.481Z,6.09
2023-02-17T09:10:55.865Z,6.05
2023-02-17T09:16:02.854Z,6.10
2023-02-17T09:21:09.556Z,6.25
2023-02-17T09:26:16.375Z,6.30
2023-02-17T09:31:25.790Z,6.47
2023-02-17T09:36:34.093Z,6.55
2023-02-17T09:41:44.971Z,6.45
2023-02-17T09:47:03.351Z,6.35
2023-02-17T09:52:15.314Z,6.35
2023-02-17T09:57:25.702Z,6.60
2023-02-17T10:02:41.432Z,6.68
2023-02-17T10:07:51.132Z,6.91
2023-02-17T10:12:59.179Z,6.81
2023-02-17T10:18:12.651Z,7.11
2023-02-17T10:23:20.625Z,7.07
2023-02-17T10:28:39.048Z,7.36
2023-02-17T10:33:55.343Z,7.48
2023-02-17T10:39:06.195Z,7.52
2023-02-17T10:44:17.996Z,7.54
2023-02-17T10:49:30.847Z,7.73
2023-02-17T10:54:39.718Z,7.86
2023-02-17T10:59:47.032Z,7.81
2023-02-17T11:04:55.740Z,8.00
2023-02-17T11:10:04.271Z,7.96
2023-02-17T11:15:19.232Z,7.97
2023-02-17T11:20:35.766Z,7.99
2023-02-17T11:25:40.085Z,7.86
2023-02-17T11:30:54.104Z,7.72
2023-02-17T11:36:00.572Z,7.43
2023-02-17T11:41:07.670Z,7.37
2023-02-17T11:46:29.574Z,7.13
2023-02-17T11:51:55.022Z,6.96
2023-02-17T11:57:18.434Z,6.98
2023-02-17T12:02:45.565Z,7.02
2023-02-17T12:08:07.059Z,7.02
2023-02-17T12:13:28.880Z,6.91
2023-02-17T12:18:49.026Z,6.76
2023-02-17T12:24:21.582Z,6.72
2023-02-17T12:29:41.496Z,6.71
2023-02-17T12:34:53.414Z,6.54
2023-02-17T12:40:04.099Z,6.34
2023-02-17T12:45:18.563Z,6.49
2023-02-17T12:50:28.426Z,6.38
2023-02-17T12:55:46.950Z,6.39
2023-02-17T13:00:56.276Z,6.46
2023-02-17T13:06:08.003Z,6.46
2023-02-17T13:11:29.163Z,6.43
2023-02-17T13:16:44.938Z,6.50
2023-02-17T13:21:56.014Z,6.54
2023-02-17T13:27:12.902Z,6.45
2023-02-17T13:32:29.851Z,6.66
2023-02-17T13:37:44.050Z,6.67
2023-02-17T13:42:51.207Z,6.71
2023-02-17T13:48:00.587Z,6.75
2023-02-17T13:53:23.616Z,6.71
2023-02-17T13:58:32.310Z,6.67
2023-02-17T14:03:44.338Z,6.56
2023-02-17T14:08:49.060Z,6.55
2023-02-17T14:13:57.999Z,6.55
2023-02-17T14:19:05.684Z,6.54
2023-02-17T14:24:29.293Z,6.52
2023-02-17T14:29:44.413Z,6.56
2023-02-17T14:34:48.868Z,6.54
2023-02-17T14:39:53.400Z,6.68
2023-02-17T14:44:59.344Z,6.67
2023-02-17T14:50:05.200Z,6.68
2023-02-17T14:55:17.533Z,6.74
2023-02-17T15:00:23.565Z,6.73
2023-02-17T15:05:28.107Z,6.76
2023-02-17T15:10:32.540Z,6.74
2023-02-17T15:15:39.313Z,6.67
2023-02-17T15:20:45.683Z,6.71
2023-02-17T15:25:50.667Z,6.59
2023-02-17T15:30:57.638Z,6.57
2023-02-17T15:36:02.247Z,6.57
2023-02-17T15:41:12.497Z,6.55
2023-02-17T15:46:21.117Z,6.53
2023-02-17T15:51:25.707Z,6.44
2023-02-17T15:56:43.491Z,6.45
2023-02-17T16:01:50.824Z,6.43
2023-02-17T16:06:55.304Z,6.45
2023-02-17T16:12:00.578Z,6.41
2023-02-17T16:17:12.397Z,6.40
2023-02-17T16:22:16.678Z,6.42
2023-02-17T16:27:21.143Z,6.34
2023-02-17T16:32:26.797Z,6.31
2023-02-17T16:37:31.551Z,6.31
2023-02-17T16:42:35.843Z,6.29
2023-02-17T16:47:41.829Z,6.31
2023-02-17T16:52:46.894Z,6.33
2023-02-17T16:57:52.118Z,6.36
2023-02-17T17:02:58.534Z,6.39
2023-02-17T17:08:02.777Z,6.32
2023-02-17T17:13:07.519Z,6.34
2023-02-17T17:18:22.240Z,6.36
2023-02-17T17:23:26.610Z,6.38
2023-02-17T17:28:30.926Z,6.39
2023-02-17T17:33:36.705Z,6.42
2023-02-17T17:38:40.935Z,6.41
2023-02-17T17:43:46.991Z,6.44
2023-02-17T17:48:53.548Z,6.44
2023-02-17T17:53:58.870Z,6.45
2023-02-17T17:59:04.815Z,6.43
2023-02-17T18:04:10.484Z,6.49
2023-02-17T18:09:31.222Z,6.49
2023-02-17T18:14:40.064Z,6.48
2023-02-17T18:19:47.404Z,6.51
2023-02-17T18:24:52.001Z,6.55
2023-02-17T18:29:56.706Z,6.56
2023-02-17T18:35:02.919Z,6.65
2023-02-17T18:40:12.495Z,6.64
2023-02-17T18:45:18.296Z,6.66
2023-02-17T18:50:24.278Z,6.71
2023-02-17T18:55:29.482Z,6.72
2023-02-17T19:00:34.075Z,6.75
2023-02-17T19:05:39.863Z,6.83
2023-02-17T19:10:45.904Z,6.84
2023-02-17T19:15:50.370Z,6.96
2023-02-17T19:20:57.055Z,6.98
2023-02-17T19:26:02.915Z,7.07
2023-02-17T19:31:09.161Z,7.07
2023-02-17T19:36:18.608Z,7.10
2023-02-17T19:41:23.133Z,7.17
2023-02-17T19:46:28.320Z,7.24
2023-02-17T19:51:34.728Z,7.27
2023-02-17T19:56:39.992Z,7.34
2023-02-17T20:01:44.377Z,7.30
2023-02-17T20:06:50.100Z,7.41
2023-02-17T20:11:54.343Z,7.44
2023-02-17T20:17:00.662Z,7.51
2023-02-17T20:22:06.678Z,7.49
2023-02-17T20:27:11.509Z,7.58
2023-02-17T20:32:16.198Z,7.61
2023-02-17T20:37:22.370Z,7.61
2023-02-17T20:42:26.989Z,7.65
2023-02-17T20:47:31.454Z,7.72
2023-02-17T20:52:37.359Z,7.73
2023-02-17T20:57:42.259Z,7.77
2023-02-17T21:02:47.059Z,7.85
2023-02-17T21:07:52.493Z,7.94
2023-02-17T21:12:56.609Z,8.03
2023-02-17T21:18:01.005Z,8.09
2023-02-17T21:23:06.890Z,8.18
2023-02-17T21:28:11.312Z,8.27
2023-02-17T21:33:15.819Z,8.24
2023-02-17T21:38:22.796Z,8.25
2023-02-17T21:43:44.622Z,8.36
2023-02-17T21:48:49.075Z,8.39
2023-02-17T21:53:55.185Z,8.45
2023-02-17T21:58:59.734Z,8.52
2023-02-17T22:04:04.305Z,8.58
2023-02-17T22:09:12.908Z,8.60
2023-02-17T22:14:19.367Z,8.66
2023-02-17T22:19:25.750Z,8.61
2023-02-17T22:24:31.513Z,8.63
2023-02-17T22:29:35.671Z,8.70
2023-02-17T22:34:40.347Z,8.75
2023-02-17T22:39:45.884Z,8.81
2023-02-17T22:44:50.944Z,8.89
2023-02-17T22:49:55.373Z,8.91
2023-02-17T22:55:01.170Z,8.99
2023-02-17T23:00:07.860Z,9.07
2023-02-17T23:05:12.247Z,9.07
2023-02-17T23:10:18.022Z,9.09
2023-02-17T23:15:39.127Z,9.09
2023-02-17T23:20:46.885Z,9.08
2023-02-17T23:25:56.382Z,9.12
2023-02-17T23:31:00.787Z,9.14
2023-02-17T23:36:05.984Z,9.12
2023-02-17T23:41:12.591Z,9.10
2023-02-17T23:46:17.098Z,9.04
2023-02-17T23:51:21.272Z,9.01
2023-02-17T23:56:32.619Z,8.99
